sensor_id;sensor_type;location;lat;lon;timestamp;temperature;humidity
32394;DHT22;18853;45.426;9.206;2023-03-12T00:01:59;20.20;46.60
32394;DHT22;18853;45.426;9.206;2023-03-12T00:04:25;20.20;46.60
32394;DHT22;18853;45.426;9.206;2023-03-12T00:06:51;20.10;46.40
32394;DHT22;18853;45.426;9.206;2023-03-12T00:09:16;20.10;46.30
32394;DHT22;18853;45.426;9.206;2023-03-12T00:11:42;20.00;46.20
32394;DHT22;18853;45.426;9.206;2023-03-12T00:14:07;19.90;46.30
32394;DHT22;18853;45.426;9.206;2023-03-12T00:16:33;19.90;46.20
32394;DHT22;18853;45.426;9.206;2023-03-12T00:18:59;19.90;46.00
32394;DHT22;18853;45.426;9.206;2023-03-12T00:21:25;19.80;46.00
32394;DHT22;18853;45.426;9.206;2023-03-12T00:23:51;19.70;46.00
32394;DHT22;18853;45.426;9.206;2023-03-12T00:26:18;19.70;45.90
32394;DHT22;18853;45.426;9.206;2023-03-12T00:28:44;19.70;45.90
32394;DHT22;18853;45.426;9.206;2023-03-12T00:31:30;19.70;45.90
32394;DHT22;18853;45.426;9.206;2023-03-12T00:33:57;19.70;46.00
32394;DHT22;18853;45.426;9.206;2023-03-12T00:36:25;19.60;46.00
32394;DHT22;18853;45.426;9.206;2023-03-12T00:38:52;19.50;45.80
32394;DHT22;18853;45.426;9.206;2023-03-12T00:41:18;19.50;45.80
32394;DHT22;18853;45.426;9.206;2023-03-12T00:43:45;19.50;45.80
32394;DHT22;18853;45.426;9.206;2023-03-12T00:46:11;19.50;45.70
32394;DHT22;18853;45.426;9.206;2023-03-12T00:48:36;19.40;45.60
32394;DHT22;18853;45.426;9.206;2023-03-12T00:51:02;19.40;45.60
32394;DHT22;18853;45.426;9.206;2023-03-12T00:53:28;19.40;45.60
32394;DHT22;18853;45.426;9.206;2023-03-12T00:55:53;19.30;45.70
32394;DHT22;18853;45.426;9.206;2023-03-12T00:58:19;19.30;45.40
32394;DHT22;18853;45.426;9.206;2023-03-12T01:00:45;19.30;45.40
32394;DHT22;18853;45.426;9.206;2023-03-12T01:03:10;19.30;45.40
32394;DHT22;18853;45.426;9.206;2023-03-12T01:05:37;19.20;45.40
32394;DHT22;18853;45.426;9.206;2023-03-12T01:08:06;19.20;45.40
32394;DHT22;18853;45.426;9.206;2023-03-12T01:10:32;19.20;45.50
32394;DHT22;18853;45.426;9.206;2023-03-12T01:12:58;19.20;45.40
32394;DHT22;18853;45.426;9.206;2023-03-12T01:15:24;19.10;45.30
32394;DHT22;18853;45.426;9.206;2023-03-12T01:17:49;19.10;46.00
32394;DHT22;18853;45.426;9.206;2023-03-12T01:20:16;19.00;45.50
32394;DHT22;18853;45.426;9.206;2023-03-12T01:22:42;18.90;45.60
32394;DHT22;18853;45.426;9.206;2023-03-12T01:25:09;18.90;45.70
32394;DHT22;18853;45.426;9.206;2023-03-12T01:27:35;18.90;45.80
32394;DHT22;18853;45.426;9.206;2023-03-12T01:30:00;18.80;45.70
32394;DHT22;18853;45.426;9.206;2023-03-12T01:32:26;18.90;45.80
32394;DHT22;18853;45.426;9.206;2023-03-12T01:34:52;18.80;45.80
32394;DHT22;18853;45.426;9.206;2023-03-12T01:37:17;18.80;45.80
32394;DHT22;18853;45.426;9.206;2023-03-12T01:39:43;18.70;46.00
32394;DHT22;18853;45.426;9.206;2023-03-12T01:42:09;18.70;46.00
32394;DHT22;18853;45.426;9.206;2023-03-12T01:47:13;18.70;46.30
32394;DHT22;18853;45.426;9.206;2023-03-12T01:49:39;18.60;46.10
32394;DHT22;18853;45.426;9.206;2023-03-12T01:52:17;18.60;46.10
32394;DHT22;18853;45.426;9.206;2023-03-12T01:57:33;18.50;46.20
32394;DHT22;18853;45.426;9.206;2023-03-12T02:00:03;18.50;46.40
32394;DHT22;18853;45.426;9.206;2023-03-12T02:02:30;18.40;46.40
32394;DHT22;18853;45.426;9.206;2023-03-12T02:05:10;18.40;46.40
32394;DHT22;18853;45.426;9.206;2023-03-12T02:07:38;18.40;46.50
32394;DHT22;18853;45.426;9.206;2023-03-12T02:10:04;18.40;46.60
32394;DHT22;18853;45.426;9.206;2023-03-12T02:12:30;18.30;46.50
32394;DHT22;18853;45.426;9.206;2023-03-12T02:14:56;18.30;46.60
32394;DHT22;18853;45.426;9.206;2023-03-12T02:17:22;18.30;46.70
32394;DHT22;18853;45.426;9.206;2023-03-12T02:22:43;18.30;46.90
32394;DHT22;18853;45.426;9.206;2023-03-12T02:25:36;18.20;46.90
32394;DHT22;18853;45.426;9.206;2023-03-12T02:28:06;18.20;47.10
32394;DHT22;18853;45.426;9.206;2023-03-12T02:30:33;18.10;46.90
32394;DHT22;18853;45.426;9.206;2023-03-12T02:33:03;18.10;47.00
32394;DHT22;18853;45.426;9.206;2023-03-12T02:35:29;18.10;47.00
32394;DHT22;18853;45.426;9.206;2023-03-12T02:37:55;18.10;47.10
32394;DHT22;18853;45.426;9.206;2023-03-12T02:42:51;18.10;47.20
32394;DHT22;18853;45.426;9.206;2023-03-12T02:45:17;18.00;47.10
32394;DHT22;18853;45.426;9.206;2023-03-12T02:47:43;18.00;47.20
32394;DHT22;18853;45.426;9.206;2023-03-12T02:50:09;18.00;47.30
32394;DHT22;18853;45.426;9.206;2023-03-12T02:52:35;18.00;47.40
32394;DHT22;18853;45.426;9.206;2023-03-12T02:55:03;17.90;47.40
32394;DHT22;18853;45.426;9.206;2023-03-12T02:57:28;17.90;47.40
32394;DHT22;18853;45.426;9.206;2023-03-12T02:59:54;17.90;47.50
32394;DHT22;18853;45.426;9.206;2023-03-12T03:02:20;17.80;47.50
32394;DHT22;18853;45.426;9.206;2023-03-12T03:04:45;17.80;47.50
32394;DHT22;18853;45.426;9.206;2023-03-12T03:07:11;17.80;47.60
32394;DHT22;18853;45.426;9.206;2023-03-12T03:09:37;17.80;47.60
32394;DHT22;18853;45.426;9.206;2023-03-12T03:12:03;17.80;47.60
32394;DHT22;18853;45.426;9.206;2023-03-12T03:14:28;17.80;47.70
32394;DHT22;18853;45.426;9.206;2023-03-12T03:16:54;17.70;47.70
32394;DHT22;18853;45.426;9.206;2023-03-12T03:19:20;17.70;47.70
32394;DHT22;18853;45.426;9.206;2023-03-12T03:21:46;17.70;47.80
32394;DHT22;18853;45.426;9.206;2023-03-12T03:24:12;17.70;47.80
32394;DHT22;18853;45.426;9.206;2023-03-12T03:26:37;17.70;47.80
32394;DHT22;18853;45.426;9.206;2023-03-12T03:29:03;17.70;47.80
32394;DHT22;18853;45.426;9.206;2023-03-12T03:31:29;17.60;47.80
32394;DHT22;18853;45.426;9.206;2023-03-12T03:33:55;17.60;47.90
32394;DHT22;18853;45.426;9.206;2023-03-12T03:36:20;17.60;48.00
32394;DHT22;18853;45.426;9.206;2023-03-12T03:38:47;17.60;48.00
32394;DHT22;18853;45.426;9.206;2023-03-12T03:41:18;17.60;48.10
32394;DHT22;18853;45.426;9.206;2023-03-12T03:43:45;17.60;48.10
32394;DHT22;18853;45.426;9.206;2023-03-12T03:46:12;17.60;48.10
32394;DHT22;18853;45.426;9.206;2023-03-12T03:48:38;17.50;48.20
32394;DHT22;18853;45.426;9.206;2023-03-12T03:51:06;17.50;48.20
32394;DHT22;18853;45.426;9.206;2023-03-12T03:53:32;17.50;48.20
32394;DHT22;18853;45.426;9.206;2023-03-12T03:56:10;17.50;48.30
32394;DHT22;18853;45.426;9.206;2023-03-12T03:58:39;17.50;48.40
32394;DHT22;18853;45.426;9.206;2023-03-12T04:01:05;17.40;48.30
32394;DHT22;18853;45.426;9.206;2023-03-12T04:03:31;17.40;48.40
32394;DHT22;18853;45.426;9.206;2023-03-12T04:06:01;17.40;48.40
32394;DHT22;18853;45.426;9.206;2023-03-12T04:08:27;17.40;48.50
32394;DHT22;18853;45.426;9.206;2023-03-12T04:10:54;17.40;48.50
32394;DHT22;18853;45.426;9.206;2023-03-12T04:13:20;17.30;48.50
32394;DHT22;18853;45.426;9.206;2023-03-12T04:15:50;17.30;49.10
32394;DHT22;18853;45.426;9.206;2023-03-12T04:18:17;17.30;48.60
32394;DHT22;18853;45.426;9.206;2023-03-12T04:20:43;17.30;48.70
32394;DHT22;18853;45.426;9.206;2023-03-12T04:23:09;17.30;48.80
32394;DHT22;18853;45.426;9.206;2023-03-12T04:25:34;17.30;48.80
32394;DHT22;18853;45.426;9.206;2023-03-12T04:28:00;17.20;48.70
32394;DHT22;18853;45.426;9.206;2023-03-12T04:30:26;17.20;48.60
32394;DHT22;18853;45.426;9.206;2023-03-12T04:32:52;17.20;48.60
32394;DHT22;18853;45.426;9.206;2023-03-12T04:35:18;17.20;48.70
32394;DHT22;18853;45.426;9.206;2023-03-12T04:37:45;17.20;48.80
32394;DHT22;18853;45.426;9.206;2023-03-12T04:40:11;17.20;48.80
32394;DHT22;18853;45.426;9.206;2023-03-12T04:42:38;17.10;48.80
32394;DHT22;18853;45.426;9.206;2023-03-12T04:45:05;17.10;48.70
32394;DHT22;18853;45.426;9.206;2023-03-12T04:47:32;17.10;48.70
32394;DHT22;18853;45.426;9.206;2023-03-12T04:49:58;17.10;48.80
32394;DHT22;18853;45.426;9.206;2023-03-12T04:52:24;17.10;48.80
32394;DHT22;18853;45.426;9.206;2023-03-12T04:54:51;17.10;48.70
32394;DHT22;18853;45.426;9.206;2023-03-12T04:57:18;17.00;48.80
32394;DHT22;18853;45.426;9.206;2023-03-12T04:59:43;17.00;48.90
32394;DHT22;18853;45.426;9.206;2023-03-12T05:02:09;17.00;48.80
32394;DHT22;18853;45.426;9.206;2023-03-12T05:04:35;17.00;48.80
32394;DHT22;18853;45.426;9.206;2023-03-12T05:07:00;17.00;48.80
32394;DHT22;18853;45.426;9.206;2023-03-12T05:09:26;17.00;48.80
32394;DHT22;18853;45.426;9.206;2023-03-12T05:11:52;17.00;48.80
32394;DHT22;18853;45.426;9.206;2023-03-12T05:14:17;17.00;48.60
32394;DHT22;18853;45.426;9.206;2023-03-12T05:16:43;16.90;49.20
32394;DHT22;18853;45.426;9.206;2023-03-12T05:19:09;16.90;48.60
32394;DHT22;18853;45.426;9.206;2023-03-12T05:21:34;16.90;48.60
32394;DHT22;18853;45.426;9.206;2023-03-12T05:24:00;16.90;48.50
32394;DHT22;18853;45.426;9.206;2023-03-12T05:26:30;16.90;48.50
32394;DHT22;18853;45.426;9.206;2023-03-12T05:28:57;16.90;48.50
32394;DHT22;18853;45.426;9.206;2023-03-12T05:31:24;16.80;48.40
32394;DHT22;18853;45.426;9.206;2023-03-12T05:33:50;16.80;48.20
32394;DHT22;18853;45.426;9.206;2023-03-12T05:36:16;16.80;48.20
32394;DHT22;18853;45.426;9.206;2023-03-12T05:38:42;16.80;48.20
32394;DHT22;18853;45.426;9.206;2023-03-12T05:41:14;16.80;48.30
32394;DHT22;18853;45.426;9.206;2023-03-12T05:43:41;16.80;48.30
32394;DHT22;18853;45.426;9.206;2023-03-12T05:46:09;16.70;48.20
32394;DHT22;18853;45.426;9.206;2023-03-12T05:48:34;16.70;48.20
32394;DHT22;18853;45.426;9.206;2023-03-12T05:51:00;16.70;48.20
32394;DHT22;18853;45.426;9.206;2023-03-12T05:53:26;16.70;48.20
32394;DHT22;18853;45.426;9.206;2023-03-12T05:55:51;16.70;48.10
32394;DHT22;18853;45.426;9.206;2023-03-12T05:58:17;16.70;48.00
32394;DHT22;18853;45.426;9.206;2023-03-12T06:00:43;16.60;48.00
32394;DHT22;18853;45.426;9.206;2023-03-12T06:03:10;16.60;47.90
32394;DHT22;18853;45.426;9.206;2023-03-12T06:05:36;16.60;47.80
32394;DHT22;18853;45.426;9.206;2023-03-12T06:08:03;16.60;47.80
32394;DHT22;18853;45.426;9.206;2023-03-12T06:10:29;16.60;47.80
32394;DHT22;18853;45.426;9.206;2023-03-12T06:12:56;16.60;47.80
32394;DHT22;18853;45.426;9.206;2023-03-12T06:15:22;16.60;47.70
32394;DHT22;18853;45.426;9.206;2023-03-12T06:17:47;16.60;47.60
32394;DHT22;18853;45.426;9.206;2023-03-12T06:20:13;16.60;47.50
32394;DHT22;18853;45.426;9.206;2023-03-12T06:22:39;16.60;47.40
32394;DHT22;18853;45.426;9.206;2023-03-12T06:25:05;16.50;47.30
32394;DHT22;18853;45.426;9.206;2023-03-12T06:27:32;16.50;47.30
32394;DHT22;18853;45.426;9.206;2023-03-12T06:29:57;16.50;47.30
32394;DHT22;18853;45.426;9.206;2023-03-12T06:32:23;16.50;47.30
32394;DHT22;18853;45.426;9.206;2023-03-12T06:34:49;16.50;47.30
32394;DHT22;18853;45.426;9.206;2023-03-12T06:37:14;16.50;47.10
32394;DHT22;18853;45.426;9.206;2023-03-12T06:39:40;16.50;47.00
32394;DHT22;18853;45.426;9.206;2023-03-12T06:42:06;16.60;46.90
32394;DHT22;18853;45.426;9.206;2023-03-12T06:44:32;16.50;47.20
32394;DHT22;18853;45.426;9.206;2023-03-12T06:46:58;16.50;46.80
32394;DHT22;18853;45.426;9.206;2023-03-12T06:49:24;16.60;46.90
32394;DHT22;18853;45.426;9.206;2023-03-12T06:51:50;16.60;46.70
32394;DHT22;18853;45.426;9.206;2023-03-12T06:54:16;16.60;46.50
32394;DHT22;18853;45.426;9.206;2023-03-12T06:56:41;16.60;46.60
32394;DHT22;18853;45.426;9.206;2023-03-12T06:59:07;16.60;46.40
32394;DHT22;18853;45.426;9.206;2023-03-12T07:01:33;16.50;46.20
32394;DHT22;18853;45.426;9.206;2023-03-12T07:03:59;16.60;46.20
32394;DHT22;18853;45.426;9.206;2023-03-12T07:06:24;16.60;46.10
32394;DHT22;18853;45.426;9.206;2023-03-12T07:08:51;16.60;46.00
32394;DHT22;18853;45.426;9.206;2023-03-12T07:11:16;16.60;45.60
32394;DHT22;18853;45.426;9.206;2023-03-12T07:13:43;16.60;45.60
32394;DHT22;18853;45.426;9.206;2023-03-12T07:16:09;16.60;45.40
32394;DHT22;18853;45.426;9.206;2023-03-12T07:18:35;16.60;45.30
32394;DHT22;18853;45.426;9.206;2023-03-12T07:21:02;16.70;45.60
32394;DHT22;18853;45.426;9.206;2023-03-12T07:23:28;16.70;45.10
32394;DHT22;18853;45.426;9.206;2023-03-12T07:25:53;16.70;45.10
32394;DHT22;18853;45.426;9.206;2023-03-12T07:28:20;16.70;45.00
32394;DHT22;18853;45.426;9.206;2023-03-12T07:30:46;16.70;44.80
32394;DHT22;18853;45.426;9.206;2023-03-12T07:33:19;16.70;44.70
32394;DHT22;18853;45.426;9.206;2023-03-12T07:35:46;16.80;44.50
32394;DHT22;18853;45.426;9.206;2023-03-12T07:38:12;16.70;44.20
32394;DHT22;18853;45.426;9.206;2023-03-12T07:40:38;16.70;44.30
32394;DHT22;18853;45.426;9.206;2023-03-12T07:43:05;16.80;44.10
32394;DHT22;18853;45.426;9.206;2023-03-12T07:45:38;16.80;44.00
32394;DHT22;18853;45.426;9.206;2023-03-12T07:48:04;16.80;44.10
32394;DHT22;18853;45.426;9.206;2023-03-12T07:50:31;16.80;44.80
32394;DHT22;18853;45.426;9.206;2023-03-12T07:52:56;17.10;46.00
32394;DHT22;18853;45.426;9.206;2023-03-12T07:55:22;17.30;46.40
32394;DHT22;18853;45.426;9.206;2023-03-12T07:57:48;17.50;45.20
32394;DHT22;18853;45.426;9.206;2023-03-12T08:00:14;17.60;43.20
32394;DHT22;18853;45.426;9.206;2023-03-12T08:02:41;17.50;43.00
32394;DHT22;18853;45.426;9.206;2023-03-12T08:05:07;17.40;43.10
32394;DHT22;18853;45.426;9.206;2023-03-12T08:07:33;17.30;43.20
32394;DHT22;18853;45.426;9.206;2023-03-12T08:10:00;17.30;43.30
32394;DHT22;18853;45.426;9.206;2023-03-12T08:12:27;17.30;43.40
32394;DHT22;18853;45.426;9.206;2023-03-12T08:14:52;17.30;43.40
32394;DHT22;18853;45.426;9.206;2023-03-12T08:17:18;17.30;43.60
32394;DHT22;18853;45.426;9.206;2023-03-12T08:19:44;17.20;43.70
32394;DHT22;18853;45.426;9.206;2023-03-12T08:22:10;17.20;43.80
32394;DHT22;18853;45.426;9.206;2023-03-12T08:24:36;17.20;43.90
32394;DHT22;18853;45.426;9.206;2023-03-12T08:27:01;17.20;43.80
32394;DHT22;18853;45.426;9.206;2023-03-12T08:29:27;17.20;44.20
32394;DHT22;18853;45.426;9.206;2023-03-12T08:31:53;17.30;44.30
32394;DHT22;18853;45.426;9.206;2023-03-12T08:34:19;17.30;44.30
32394;DHT22;18853;45.426;9.206;2023-03-12T08:36:45;17.40;44.50
32394;DHT22;18853;45.426;9.206;2023-03-12T08:39:10;17.50;44.70
32394;DHT22;18853;45.426;9.206;2023-03-12T08:41:36;17.50;44.60
32394;DHT22;18853;45.426;9.206;2023-03-12T08:44:02;17.40;44.50
32394;DHT22;18853;45.426;9.206;2023-03-12T08:46:27;17.40;44.90
32394;DHT22;18853;45.426;9.206;2023-03-12T08:48:54;17.30;45.00
32394;DHT22;18853;45.426;9.206;2023-03-12T08:51:19;17.20;45.10
32394;DHT22;18853;45.426;9.206;2023-03-12T08:53:46;17.10;45.30
32394;DHT22;18853;45.426;9.206;2023-03-12T08:56:11;17.10;45.80
32394;DHT22;18853;45.426;9.206;2023-03-12T08:58:37;17.20;45.90
32394;DHT22;18853;45.426;9.206;2023-03-12T09:01:08;17.20;46.10
32394;DHT22;18853;45.426;9.206;2023-03-12T09:03:34;17.30;46.60
32394;DHT22;18853;45.426;9.206;2023-03-12T09:06:08;17.40;46.40
32394;DHT22;18853;45.426;9.206;2023-03-12T09:08:44;17.60;48.60
32394;DHT22;18853;45.426;9.206;2023-03-12T09:11:11;17.80;46.10
32394;DHT22;18853;45.426;9.206;2023-03-12T09:13:38;18.20;49.80
32394;DHT22;18853;45.426;9.206;2023-03-12T09:16:05;18.80;48.20
32394;DHT22;18853;45.426;9.206;2023-03-12T09:18:32;19.20;46.80
32394;DHT22;18853;45.426;9.206;2023-03-12T09:20:57;19.50;45.50
32394;DHT22;18853;45.426;9.206;2023-03-12T09:23:24;19.80;44.20
32394;DHT22;18853;45.426;9.206;2023-03-12T09:25:51;19.90;42.30
32394;DHT22;18853;45.426;9.206;2023-03-12T09:28:17;20.00;43.10
32394;DHT22;18853;45.426;9.206;2023-03-12T09:30:43;20.10;42.80
32394;DHT22;18853;45.426;9.206;2023-03-12T09:33:09;20.20;41.90
32394;DHT22;18853;45.426;9.206;2023-03-12T09:35:34;20.00;41.90
32394;DHT22;18853;45.426;9.206;2023-03-12T09:38:01;19.80;42.00
32394;DHT22;18853;45.426;9.206;2023-03-12T09:40:29;19.60;42.30
32394;DHT22;18853;45.426;9.206;2023-03-12T09:43:05;19.40;42.40
32394;DHT22;18853;45.426;9.206;2023-03-12T09:45:41;19.20;42.60
32394;DHT22;18853;45.426;9.206;2023-03-12T09:48:17;19.20;42.80
32394;DHT22;18853;45.426;9.206;2023-03-12T09:50:47;19.10;43.10
32394;DHT22;18853;45.426;9.206;2023-03-12T09:53:33;19.00;43.30
32394;DHT22;18853;45.426;9.206;2023-03-12T09:56:03;19.10;43.20
32394;DHT22;18853;45.426;9.206;2023-03-12T09:58:35;19.00;43.50
32394;DHT22;18853;45.426;9.206;2023-03-12T10:01:18;19.00;43.70
32394;DHT22;18853;45.426;9.206;2023-03-12T10:06:34;19.00;43.90
32394;DHT22;18853;45.426;9.206;2023-03-12T10:09:18;18.90;44.40
32394;DHT22;18853;45.426;9.206;2023-03-12T10:22:54;19.00;43.40
32394;DHT22;18853;45.426;9.206;2023-03-12T10:25:40;18.90;43.80
32394;DHT22;18853;45.426;9.206;2023-03-12T10:28:21;18.90;44.20
32394;DHT22;18853;45.426;9.206;2023-03-12T10:30:55;18.70;44.90
32394;DHT22;18853;45.426;9.206;2023-03-12T10:33:25;18.80;44.70
32394;DHT22;18853;45.426;9.206;2023-03-12T10:35:52;18.90;44.60
32394;DHT22;18853;45.426;9.206;2023-03-12T10:38:28;18.80;44.20
32394;DHT22;18853;45.426;9.206;2023-03-12T10:40:54;18.90;44.40
32394;DHT22;18853;45.426;9.206;2023-03-12T10:43:19;18.90;44.50
32394;DHT22;18853;45.426;9.206;2023-03-12T10:48:19;18.90;43.80
32394;DHT22;18853;45.426;9.206;2023-03-12T10:51:09;18.80;44.10
32394;DHT22;18853;45.426;9.206;2023-03-12T10:53:37;18.80;44.60
32394;DHT22;18853;45.426;9.206;2023-03-12T10:56:19;18.70;44.90
32394;DHT22;18853;45.426;9.206;2023-03-12T10:58:46;18.70;45.10
32394;DHT22;18853;45.426;9.206;2023-03-12T11:03:43;19.00;44.90
32394;DHT22;18853;45.426;9.206;2023-03-12T11:06:28;19.00;44.60
32394;DHT22;18853;45.426;9.206;2023-03-12T11:09:18;19.20;44.40
32394;DHT22;18853;45.426;9.206;2023-03-12T11:11:45;19.10;44.30
32394;DHT22;18853;45.426;9.206;2023-03-12T11:14:24;19.10;44.00
32394;DHT22;18853;45.426;9.206;2023-03-12T11:16:51;19.20;43.70
32394;DHT22;18853;45.426;9.206;2023-03-12T11:19:33;19.20;43.60
32394;DHT22;18853;45.426;9.206;2023-03-12T11:22:02;19.20;44.10
32394;DHT22;18853;45.426;9.206;2023-03-12T11:24:28;19.20;43.70
32394;DHT22;18853;45.426;9.206;2023-03-12T11:29:44;19.30;43.20
32394;DHT22;18853;45.426;9.206;2023-03-12T11:34:42;19.00;43.70
32394;DHT22;18853;45.426;9.206;2023-03-12T11:46:01;19.70;43.30
32394;DHT22;18853;45.426;9.206;2023-03-12T12:05:09;19.80;42.20
32394;DHT22;18853;45.426;9.206;2023-03-12T12:16:29;20.30;44.10
32394;DHT22;18853;45.426;9.206;2023-03-12T12:27:44;20.70;41.60
32394;DHT22;18853;45.426;9.206;2023-03-12T12:30:26;20.70;41.90
32394;DHT22;18853;45.426;9.206;2023-03-12T12:33:16;20.70;41.20
32394;DHT22;18853;45.426;9.206;2023-03-12T12:35:47;20.80;41.10
32394;DHT22;18853;45.426;9.206;2023-03-12T12:38:36;20.80;41.40
32394;DHT22;18853;45.426;9.206;2023-03-12T12:43:41;21.20;46.30
32394;DHT22;18853;45.426;9.206;2023-03-12T12:46:11;21.60;45.30
32394;DHT22;18853;45.426;9.206;2023-03-12T12:48:42;21.90;43.60
32394;DHT22;18853;45.426;9.206;2023-03-12T12:51:08;22.10;42.80
32394;DHT22;18853;45.426;9.206;2023-03-12T12:56:19;22.40;41.30
32394;DHT22;18853;45.426;9.206;2023-03-12T12:58:55;22.50;41.40
32394;DHT22;18853;45.426;9.206;2023-03-12T13:01:28;22.30;39.10
32394;DHT22;18853;45.426;9.206;2023-03-12T13:04:00;22.10;38.80
32394;DHT22;18853;45.426;9.206;2023-03-12T13:06:28;22.10;38.40
32394;DHT22;18853;45.426;9.206;2023-03-12T13:09:12;22.10;38.10
32394;DHT22;18853;45.426;9.206;2023-03-12T13:11:42;22.00;38.60
32394;DHT22;18853;45.426;9.206;2023-03-12T13:16:43;22.10;38.60
32394;DHT22;18853;45.426;9.206;2023-03-12T13:24:31;22.30;38.30
32394;DHT22;18853;45.426;9.206;2023-03-12T13:27:18;22.30;37.70
32394;DHT22;18853;45.426;9.206;2023-03-12T13:29:47;22.30;37.10
32394;DHT22;18853;45.426;9.206;2023-03-12T13:35:35;22.30;37.20
32394;DHT22;18853;45.426;9.206;2023-03-12T13:38:04;22.50;37.30
32394;DHT22;18853;45.426;9.206;2023-03-12T13:48:24;22.90;35.60
32394;DHT22;18853;45.426;9.206;2023-03-12T13:51:37;22.80;36.30
32394;DHT22;18853;45.426;9.206;2023-03-12T13:53:38;22.90;36.00
32394;DHT22;18853;45.426;9.206;2023-03-12T13:56:11;22.90;35.80
32394;DHT22;18853;45.426;9.206;2023-03-12T13:58:59;23.00;35.60
32394;DHT22;18853;45.426;9.206;2023-03-12T14:01:45;23.20;35.20
32394;DHT22;18853;45.426;9.206;2023-03-12T14:04:19;23.30;35.00
32394;DHT22;18853;45.426;9.206;2023-03-12T14:09:48;23.70;35.20
32394;DHT22;18853;45.426;9.206;2023-03-12T14:12:25;23.70;34.90
32394;DHT22;18853;45.426;9.206;2023-03-12T14:15:13;23.90;35.50
32394;DHT22;18853;45.426;9.206;2023-03-12T14:17:42;24.10;34.80
32394;DHT22;18853;45.426;9.206;2023-03-12T14:22:38;24.50;33.80
32394;DHT22;18853;45.426;9.206;2023-03-12T14:25:12;24.40;33.60
32394;DHT22;18853;45.426;9.206;2023-03-12T14:27:38;24.40;33.40
32394;DHT22;18853;45.426;9.206;2023-03-12T14:30:27;24.30;33.90
32394;DHT22;18853;45.426;9.206;2023-03-12T14:32:56;24.30;34.20
32394;DHT22;18853;45.426;9.206;2023-03-12T14:35:32;24.40;34.10
32394;DHT22;18853;45.426;9.206;2023-03-12T14:40:42;24.60;33.80
32394;DHT22;18853;45.426;9.206;2023-03-12T14:43:31;24.80;33.00
32394;DHT22;18853;45.426;9.206;2023-03-12T14:46:03;25.00;35.10
32394;DHT22;18853;45.426;9.206;2023-03-12T14:48:31;25.20;34.00
32394;DHT22;18853;45.426;9.206;2023-03-12T14:50:59;25.20;32.30
32394;DHT22;18853;45.426;9.206;2023-03-12T14:56:09;25.20;33.10
32394;DHT22;18853;45.426;9.206;2023-03-12T14:58:45;25.20;32.30
32394;DHT22;18853;45.426;9.206;2023-03-12T15:01:17;25.10;32.10
32394;DHT22;18853;45.426;9.206;2023-03-12T15:03:47;25.10;32.90
32394;DHT22;18853;45.426;9.206;2023-03-12T15:06:18;25.20;32.30
32394;DHT22;18853;45.426;9.206;2023-03-12T15:08:44;25.30;32.80
32394;DHT22;18853;45.426;9.206;2023-03-12T15:11:10;25.30;32.00
32394;DHT22;18853;45.426;9.206;2023-03-12T15:13:38;25.30;32.30
32394;DHT22;18853;45.426;9.206;2023-03-12T15:16:05;25.30;32.30
32394;DHT22;18853;45.426;9.206;2023-03-12T15:18:31;25.40;32.60
32394;DHT22;18853;45.426;9.206;2023-03-12T15:20:59;25.50;32.50
32394;DHT22;18853;45.426;9.206;2023-03-12T15:23:29;25.60;32.50
32394;DHT22;18853;45.426;9.206;2023-03-12T15:26:26;25.50;32.10
32394;DHT22;18853;45.426;9.206;2023-03-12T15:29:01;25.50;31.40
32394;DHT22;18853;45.426;9.206;2023-03-12T15:31:40;25.30;32.10
32394;DHT22;18853;45.426;9.206;2023-03-12T15:34:08;25.20;32.00
32394;DHT22;18853;45.426;9.206;2023-03-12T15:36:35;25.30;33.50
32394;DHT22;18853;45.426;9.206;2023-03-12T15:39:19;25.40;33.00
32394;DHT22;18853;45.426;9.206;2023-03-12T15:41:48;25.60;31.90
32394;DHT22;18853;45.426;9.206;2023-03-12T15:44:23;25.40;32.00
32394;DHT22;18853;45.426;9.206;2023-03-12T15:47:03;25.40;33.10
32394;DHT22;18853;45.426;9.206;2023-03-12T15:49:33;25.50;32.50
32394;DHT22;18853;45.426;9.206;2023-03-12T15:52:34;25.50;32.40
32394;DHT22;18853;45.426;9.206;2023-03-12T15:57:27;25.40;31.70
32394;DHT22;18853;45.426;9.206;2023-03-12T16:02:58;25.40;31.20
32394;DHT22;18853;45.426;9.206;2023-03-12T16:05:30;25.40;31.40
32394;DHT22;18853;45.426;9.206;2023-03-12T16:07:56;25.50;31.60
32394;DHT22;18853;45.426;9.206;2023-03-12T16:10:25;25.50;31.30
32394;DHT22;18853;45.426;9.206;2023-03-12T16:12:57;25.50;31.50
32394;DHT22;18853;45.426;9.206;2023-03-12T16:15:30;25.50;31.70
32394;DHT22;18853;45.426;9.206;2023-03-12T16:17:56;25.60;31.70
32394;DHT22;18853;45.426;9.206;2023-03-12T16:20:22;25.50;31.60
32394;DHT22;18853;45.426;9.206;2023-03-12T16:22:48;25.60;31.70
32394;DHT22;18853;45.426;9.206;2023-03-12T16:25:13;25.50;31.50
32394;DHT22;18853;45.426;9.206;2023-03-12T16:27:51;25.40;31.70
32394;DHT22;18853;45.426;9.206;2023-03-12T16:30:28;25.30;32.00
32394;DHT22;18853;45.426;9.206;2023-03-12T16:32:55;25.00;32.20
32394;DHT22;18853;45.426;9.206;2023-03-12T16:35:21;24.90;32.60
32394;DHT22;18853;45.426;9.206;2023-03-12T16:37:47;24.70;33.10
32394;DHT22;18853;45.426;9.206;2023-03-12T16:40:14;24.60;33.50
32394;DHT22;18853;45.426;9.206;2023-03-12T16:42:45;24.50;34.00
32394;DHT22;18853;45.426;9.206;2023-03-12T16:45:16;24.30;34.50
32394;DHT22;18853;45.426;9.206;2023-03-12T16:47:43;24.20;34.90
32394;DHT22;18853;45.426;9.206;2023-03-12T16:50:20;24.10;34.80
32394;DHT22;18853;45.426;9.206;2023-03-12T16:52:46;24.00;35.30
32394;DHT22;18853;45.426;9.206;2023-03-12T16:55:14;23.80;35.50
32394;DHT22;18853;45.426;9.206;2023-03-12T16:57:51;23.80;35.70
32394;DHT22;18853;45.426;9.206;2023-03-12T17:00:28;23.70;36.00
32394;DHT22;18853;45.426;9.206;2023-03-12T17:02:55;23.60;36.20
32394;DHT22;18853;45.426;9.206;2023-03-12T17:05:28;23.50;36.30
32394;DHT22;18853;45.426;9.206;2023-03-12T17:07:55;23.50;36.40
32394;DHT22;18853;45.426;9.206;2023-03-12T17:10:22;23.40;36.60
32394;DHT22;18853;45.426;9.206;2023-03-12T17:12:48;23.50;38.30
32394;DHT22;18853;45.426;9.206;2023-03-12T17:15:27;23.70;38.20
32394;DHT22;18853;45.426;9.206;2023-03-12T17:17:55;23.80;37.80
32394;DHT22;18853;45.426;9.206;2023-03-12T17:20:22;23.90;37.70
32394;DHT22;18853;45.426;9.206;2023-03-12T17:22:48;23.90;37.00
32394;DHT22;18853;45.426;9.206;2023-03-12T17:25:28;24.00;36.50
32394;DHT22;18853;45.426;9.206;2023-03-12T17:27:54;24.00;36.60
32394;DHT22;18853;45.426;9.206;2023-03-12T17:30:21;24.00;36.50
32394;DHT22;18853;45.426;9.206;2023-03-12T17:32:48;24.00;36.30
32394;DHT22;18853;45.426;9.206;2023-03-12T17:35:14;24.00;35.80
32394;DHT22;18853;45.426;9.206;2023-03-12T17:37:40;23.80;35.80
32394;DHT22;18853;45.426;9.206;2023-03-12T17:40:06;23.60;36.10